Tombstone, AZ

4:11 AM MST on September 17, 2014 (GMT -0700)
Dragoon Mountain Ranch 3 | Change Station
CLOSE
Current Station
Personal Weather Station
Location: Saint David, AZ
Elevation: 4580 ft
Nearby Weather Stations
Active Advisory: Flash Flood Watch Active Notice: Public Information Statement

Elev 4580 ft 31.86 °N, 110.08 °W | Updated 4 seconds ago

Overcast
Overcast
65.5 °F
Feels Like 65.5 °F
N
4.0
Wind Variable Wind from SE
Gusts 5.0 mph

Today
High -- | Low -- °F
--% Chance of Precip.
Yesterday
High -- | Low -- °F
Precip. -- in
6:05 AM 6:23 PM
Last Quarter, 37% visible
Pressure 29.86 in
Visibility 10.0 miles
Clouds Scattered Clouds 400 ft
Scattered Clouds 2500 ft
Overcast 6000 ft
Dew Point 64 °F
Humidity 95%
Rainfall 0.33 in
Snow Depth Not available.
UV 0 out of 12
Pollen 3.80 out of 12
Air Quality Not available.
Flu Activity Not available.
METAR KFHU 171055Z 12010KT 10SM SCT004 SCT025 OVC060 18/18 A3001 RMK SLP111

More Conditions Fewer Conditions

Pressure 29.86 in
Visibility 10.0 miles
Clouds Scattered Clouds 400 ft
Scattered Clouds 2500 ft
Overcast 6000 ft
Dew Point 64 °F
Humidity 95%
Rainfall 0.33 in
Snow Depth Not available.
UV 0 out of 12
Pollen 3.80 out of 12
Air Quality Not available.
Flu Activity Not available.
METAR KFHU 171055Z 12010KT 10SM SCT004 SCT025 OVC060 18/18 A3001 RMK SLP111

More Conditions Fewer Conditions

10-Day Weather Forecast

Almanac

Astronomy

Sep. 17, 2014 Rise Set
Actual Time 6:05 AM MST 6:23 PM MST
Civil Twilight 5:41 AM MST 6:47 PM MST
Nautical Twilight 5:12 AM MST 7:16 PM MST
Astronomical Twilight 4:43 AM MST 7:44 PM MST
Moon 12:23 AM MST 2:20 PM MST
Length of Visible Light 13h 06m
Length of Day
12h 17m
Tomorrow will be 1m 54s shorter.
Last Quarter, 37% of the Moon is Illuminated
Today
Last Quarter
Sep 24
New
Oct 1
First Quarter
Oct 8
Full
Oct 15
Last Quarter

Today's Extremes

State Highs State Lows

Community

WunderPhotos

Upload Photos

1,754,002 photos uploaded!

Nearby

Snow Depth

Station Depth Elevation
Mormon Mountain 0 in 7500 ft
Coronado Trail 0 in 8400 ft
White Horse Lake 0 in 7180 ft
Wildcat 0 in 7850 ft
Snowslide Canyon 1 in 9730 ft

Earthquake Activity

City Distance Mag. Time & Date
Lordsburg, New Mexico 76 miles 3.5 4:55 AM MST
2014-09-15
Minimum magnitude displayed is 2.5.

Coastal Water Temperatures

Place Temperature
No Stations Reporting

Nearby Weather Stations